Main page
METAR-TAF:

METAR-TAF

Airports :

Hohenfels, Germany

latitude: 49-13N, longitude: 011-50E, elevation: 442 m

Current weather observation

The report was made 53 minutes ago, at 08:56 UTC
Wind 6 kt from the West
Temperature 3°C
Humidity 100%
Pressure 1025 hPa
Visibility 10 km or more
Overcast at a height of 900 ft

METAR: ETIH 230856Z AUTO 26006KT 9999 OVC009 03/03 A3026 RMK AO2 RAB02E44 SLP268 P0000 60000 T00290029 52031 $

Time: 10:49 (09:49 UTC)


TAF: missing

Weather observations and forecasts of more than 4000 airports (METAR and TAF reports).

The available stations are represented by yellow and red dots on the map.

Hover mouse over dot to see the name of the station.

Then click to see weather observations and forecasts.

To change the map : click on the green buttons with a black cross to zoom in, on the green button with a dash to zoom out, or on the green arrows for adjacent maps.


METAR-TAF: